Portada
METAR-TAF:

METAR-TAF

Aeroports :

San José, Costa Rica

latitud: 09-57N, longitud: 084-09W, altitud: 994 m

Observació

L'informe es va fer fa 31 minuts, a les 16:00 UTC
Vent 9 kt del Est
Temperatura 26°C
Humitat 58%
Pressió 1018 hPa
Visibilitat 10 km o més
Cel ennuvolat a una alçada de 4500 ft

METAR: MRPV 191600Z 08009KT 9999 BKN045 26/17 A3006 NOSIG

Hora: 10:31 (16:31 UTC)

Pronòstic

L'informe es va fer fa 5 hores i 31 minuts, a les 11:00 UTC
Pronòstic vàlid del 19 a les 12 UTC al 20 a les 12 UTC
Vent 9 kt del Est/Sud-Est
Visibilitat 10 km o més
Escasses núvols a una alçada de 3000 ft
Temporalment
l' 19 a les 19 UTC al 19 a les 23 UTC
Vent 7 kt del Oest
Núvols disperses a una alçada de 2000 ft, Cumulonimbus.
tempesta, pluja

TAF: MRPV 191100Z 1912/2012 11009KT 9999 FEW030 TX27/1918Z TN19/2010Z TEMPO 1919/1923 28007KT TSRA SCT020CB

Observacions i pronòstics meteorològics de més de 4000 aeroports (METAR i TAF).

Les estacions disponibles són els punts grocs i vermells al mapa.

Posi el ratolí al punt desitjat per veure el nom de l'estació.

Feu clic per veure les observacions i els pronòstics meteorològics.

Per canviar el mapa: feu clic els botons verds amb una creu de color negre per apropar; al botó verd amb un guió per allunyar la imatge; o en les fletxes verdes per a mapes adjacents.


METAR-TAF: